Time;durP1;ratioP1;P1;durP2;ratioP2;P2;SDS_P1;SDS_P2;PMS_P1;PMS_P2;Temp;Humidity;BMP_temperature;BMP_pressure;BME280_temperature;BME280_humidity;BME280_pressure;Samples;Min_cycle;Max_cycle;Signal;HPM_P1;HPM_P2
2023/07/09 00:02:01;;;;;;;9.70;8.23;;;;;;;;;;5073728;28;20204;-67
2023/07/09 00:04:28;;;;;;;11.95;7.72;;;;;;;;;;5080395;28;20585;-67
2023/07/09 00:06:55;;;;;;;10.80;7.40;;;;;;;;;;5073023;28;20208;-67
2023/07/09 00:09:21;;;;;;;13.93;7.25;;;;;;;;;;5085295;28;20227;-67
2023/07/09 00:11:47;;;;;;;10.48;7.65;;;;;;;;;;5089017;28;20184;-67
2023/07/09 00:14:15;;;;;;;8.52;7.03;;;;;;;;;;5087285;28;20688;-67
2023/07/09 00:16:43;;;;;;;12.18;7.47;;;;;;;;;;5078565;28;20184;-67
2023/07/09 00:19:18;;;;;;;10.35;7.47;;;;;;;;;;5088143;28;20241;-67
2023/07/09 00:21:45;;;;;;;11.07;7.72;;;;;;;;;;5077846;28;20190;-67
2023/07/09 00:24:13;;;;;;;15.00;7.45;;;;;;;;;;5085744;28;20188;-67
2023/07/09 00:26:43;;;;;;;9.95;7.53;;;;;;;;;;5081533;28;20618;-67
2023/07/09 00:29:10;;;;;;;9.77;8.18;;;;;;;;;;5074528;28;20184;-67
2023/07/09 00:31:38;;;;;;;12.15;7.88;;;;;;;;;;5082591;28;20211;-67
2023/07/09 00:34:04;;;;;;;10.63;7.93;;;;;;;;;;5074307;28;20192;-67
2023/07/09 00:36:34;;;;;;;11.73;8.10;;;;;;;;;;5075830;28;20238;-67
2023/07/09 00:39:04;;;;;;;11.35;7.25;;;;;;;;;;5080007;28;20224;-67
2023/07/09 00:41:33;;;;;;;10.00;7.88;;;;;;;;;;5087050;28;20184;-67
2023/07/09 00:44:44;;;;;;;13.43;7.57;;;;;;;;;;5086492;28;20250;-67
2023/07/09 00:47:49;;;;;;;12.35;7.40;;;;;;;;;;5063761;28;20255;-66
2023/07/09 00:50:51;;;;;;;18.75;7.75;;;;;;;;;;5074327;28;20633;-66
2023/07/09 00:53:22;;;;;;;11.10;7.95;;;;;;;;;;5076011;28;20645;-67
2023/07/09 00:56:09;;;;;;;8.68;7.40;;;;;;;;;;5079438;28;20713;-67
2023/07/09 00:58:37;;;;;;;9.98;7.38;;;;;;;;;;5067994;28;20187;-67
2023/07/09 01:01:06;;;;;;;9.38;7.32;;;;;;;;;;5079644;28;20204;-68
2023/07/09 01:03:36;;;;;;;10.52;7.85;;;;;;;;;;5078218;28;20188;-68
2023/07/09 01:06:03;;;;;;;12.80;7.35;;;;;;;;;;5073744;28;20208;-68
2023/07/09 01:08:33;;;;;;;11.93;8.23;;;;;;;;;;5077043;28;20193;-68
2023/07/09 01:10:59;;;;;;;8.93;7.70;;;;;;;;;;5079557;28;20266;-68
2023/07/09 01:13:26;;;;;;;10.65;8.13;;;;;;;;;;5077833;28;20204;-68
2023/07/09 01:15:53;;;;;;;9.73;7.32;;;;;;;;;;5085396;28;20200;-68
2023/07/09 01:18:19;;;;;;;10.10;7.22;;;;;;;;;;5076149;28;20876;-68
2023/07/09 01:20:44;;;;;;;10.05;8.05;;;;;;;;;;5082250;28;20280;-68
2023/07/09 01:23:10;;;;;;;11.32;7.70;;;;;;;;;;5079550;28;20188;-68
2023/07/09 01:25:44;;;;;;;12.48;7.80;;;;;;;;;;5083500;28;20236;-68
2023/07/09 01:28:09;;;;;;;11.65;7.70;;;;;;;;;;5074396;28;20191;-68
2023/07/09 01:30:38;;;;;;;8.85;7.45;;;;;;;;;;5087457;28;20200;-68
2023/07/09 01:33:06;;;;;;;10.27;7.85;;;;;;;;;;5083859;28;20225;-67
2023/07/09 01:35:34;;;;;;;10.57;7.80;;;;;;;;;;5087800;28;20283;-67
2023/07/09 01:38:00;;;;;;;10.35;7.95;;;;;;;;;;5067967;28;20370;-68
2023/07/09 01:40:27;;;;;;;12.07;8.27;;;;;;;;;;5072376;28;20276;-67
2023/07/09 01:42:55;;;;;;;9.40;8.00;;;;;;;;;;5071774;28;20593;-67
2023/07/09 01:45:21;;;;;;;9.05;7.43;;;;;;;;;;5076863;28;20185;-67
2023/07/09 01:47:46;;;;;;;9.95;8.30;;;;;;;;;;5069736;28;20234;-68
2023/07/09 01:50:12;;;;;;;11.10;7.50;;;;;;;;;;5085533;28;20296;-68
2023/07/09 01:52:41;;;;;;;10.57;7.78;;;;;;;;;;5084414;28;20196;-67
2023/07/09 01:55:10;;;;;;;10.88;8.30;;;;;;;;;;5074753;28;20186;-67
2023/07/09 01:57:35;;;;;;;10.23;8.02;;;;;;;;;;5075195;28;20197;-67
2023/07/09 02:00:05;;;;;;;10.52;7.78;;;;;;;;;;5075739;28;20187;-67
2023/07/09 02:02:32;;;;;;;8.90;7.35;;;;;;;;;;5087467;28;20227;-68
2023/07/09 02:04:58;;;;;;;11.63;8.15;;;;;;;;;;5073073;28;20246;-68
2023/07/09 02:07:24;;;;;;;10.65;7.95;;;;;;;;;;5073868;28;20220;-68
2023/07/09 02:09:51;;;;;;;9.68;8.15;;;;;;;;;;5077788;28;20499;-68
2023/07/09 02:12:17;;;;;;;12.48;8.48;;;;;;;;;;5083999;28;20255;-68
2023/07/09 02:14:44;;;;;;;9.98;7.85;;;;;;;;;;5079395;28;20215;-68
2023/07/09 02:17:11;;;;;;;11.48;8.15;;;;;;;;;;5081468;28;20232;-68
2023/07/09 02:19:37;;;;;;;11.25;7.68;;;;;;;;;;5076275;28;20229;-68
2023/07/09 02:22:03;;;;;;;9.55;7.88;;;;;;;;;;5086412;28;20187;-68
2023/07/09 02:24:29;;;;;;;13.60;8.35;;;;;;;;;;5071591;28;20188;-67
2023/07/09 02:26:55;;;;;;;9.57;7.50;;;;;;;;;;5084987;28;20341;-67
2023/07/09 02:29:21;;;;;;;14.02;7.70;;;;;;;;;;5090172;28;20188;-68
2023/07/09 02:31:50;;;;;;;12.93;8.18;;;;;;;;;;5088523;28;20352;-67
2023/07/09 02:34:15;;;;;;;9.98;7.50;;;;;;;;;;5088671;28;20646;-67
2023/07/09 02:36:42;;;;;;;10.43;7.95;;;;;;;;;;5091034;28;20265;-68
2023/07/09 02:39:10;;;;;;;9.65;7.45;;;;;;;;;;5091512;28;20188;-68
2023/07/09 02:41:35;;;;;;;10.63;8.02;;;;;;;;;;5086041;28;20184;-67
2023/07/09 02:44:00;;;;;;;11.20;8.20;;;;;;;;;;5084389;28;20238;-67
2023/07/09 02:46:26;;;;;;;11.30;8.05;;;;;;;;;;5089525;28;20297;-67
2023/07/09 02:48:51;;;;;;;10.27;7.97;;;;;;;;;;5083358;28;20192;-67
2023/07/09 02:51:16;;;;;;;11.25;8.23;;;;;;;;;;5075497;28;20616;-67
2023/07/09 02:53:42;;;;;;;11.68;8.23;;;;;;;;;;5076870;28;20219;-67
2023/07/09 02:56:07;;;;;;;9.98;7.95;;;;;;;;;;5087190;28;20192;-67
2023/07/09 02:58:33;;;;;;;12.13;8.48;;;;;;;;;;5075542;28;20636;-67
2023/07/09 03:00:58;;;;;;;10.23;7.70;;;;;;;;;;5086722;28;20231;-67
2023/07/09 03:03:23;;;;;;;12.88;8.90;;;;;;;;;;5074090;28;20227;-67
2023/07/09 03:05:49;;;;;;;11.85;8.45;;;;;;;;;;5073815;28;20217;-68
2023/07/09 03:08:15;;;;;;;9.75;7.95;;;;;;;;;;5070498;28;20192;-67
2023/07/09 03:10:40;;;;;;;10.32;7.72;;;;;;;;;;5085223;28;20195;-67
2023/07/09 03:13:06;;;;;;;12.15;8.73;;;;;;;;;;5090217;28;20184;-67
2023/07/09 03:15:31;;;;;;;10.18;8.52;;;;;;;;;;5081714;28;20188;-67
2023/07/09 03:17:57;;;;;;;11.50;8.63;;;;;;;;;;5084394;28;20226;-67
2023/07/09 03:20:22;;;;;;;11.70;8.73;;;;;;;;;;5076854;28;20188;-67
2023/07/09 03:22:48;;;;;;;12.02;8.30;;;;;;;;;;5082435;28;20192;-67
2023/07/09 03:25:13;;;;;;;11.05;8.98;;;;;;;;;;5081449;28;20274;-67
2023/07/09 03:27:39;;;;;;;12.50;8.68;;;;;;;;;;5080089;28;20694;-67
2023/07/09 03:30:05;;;;;;;15.02;9.45;;;;;;;;;;5080046;28;20199;-67
2023/07/09 03:32:30;;;;;;;13.30;8.50;;;;;;;;;;5079939;28;20181;-67
2023/07/09 03:34:56;;;;;;;12.85;8.90;;;;;;;;;;5077791;28;20196;-68
2023/07/09 03:37:21;;;;;;;10.30;8.43;;;;;;;;;;5081168;28;20208;-68
2023/07/09 03:39:46;;;;;;;13.80;8.85;;;;;;;;;;5085379;28;20197;-67
2023/07/09 03:42:12;;;;;;;13.05;8.82;;;;;;;;;;5075642;28;20868;-67
2023/07/09 03:44:37;;;;;;;13.75;9.75;;;;;;;;;;5087518;28;20204;-67
2023/07/09 03:47:03;;;;;;;11.00;8.65;;;;;;;;;;5085060;28;20204;-67
2023/07/09 03:49:28;;;;;;;10.93;8.85;;;;;;;;;;5077126;28;20662;-67
2023/07/09 03:51:54;;;;;;;11.40;8.73;;;;;;;;;;5087585;28;20187;-67
2023/07/09 03:54:19;;;;;;;10.98;8.90;;;;;;;;;;5084913;28;20184;-67
2023/07/09 03:56:44;;;;;;;11.95;8.23;;;;;;;;;;5085382;28;20204;-67
2023/07/09 03:59:10;;;;;;;16.27;8.55;;;;;;;;;;5076586;28;20528;-67
2023/07/09 04:01:35;;;;;;;12.55;8.55;;;;;;;;;;5083396;28;20219;-67
2023/07/09 04:04:01;;;;;;;13.65;8.95;;;;;;;;;;5088563;28;20271;-67
2023/07/09 04:06:26;;;;;;;12.05;8.63;;;;;;;;;;5085291;28;20211;-67
2023/07/09 04:08:52;;;;;;;12.63;8.50;;;;;;;;;;5083956;28;20191;-67
2023/07/09 04:11:17;;;;;;;12.23;8.90;;;;;;;;;;5081914;28;20219;-68
2023/07/09 04:13:42;;;;;;;13.80;9.05;;;;;;;;;;5075674;28;20246;-68
2023/07/09 04:16:09;;;;;;;11.10;8.27;;;;;;;;;;5078769;28;20725;-68
2023/07/09 04:18:36;;;;;;;11.70;8.65;;;;;;;;;;5086728;28;20184;-68
2023/07/09 04:21:02;;;;;;;11.90;9.20;;;;;;;;;;5082833;28;20202;-67
2023/07/09 04:23:27;;;;;;;11.30;8.60;;;;;;;;;;5074280;28;20184;-67
2023/07/09 04:25:52;;;;;;;12.93;8.98;;;;;;;;;;5078012;28;20235;-67
2023/07/09 04:28:18;;;;;;;10.48;8.27;;;;;;;;;;5073776;28;20737;-68
2023/07/09 04:30:50;;;;;;;10.55;8.50;;;;;;;;;;5087895;28;20207;-68
2023/07/09 04:33:17;;;;;;;12.60;8.70;;;;;;;;;;5075153;28;20228;-67
2023/07/09 04:35:44;;;;;;;11.15;8.90;;;;;;;;;;5086229;28;20718;-68
2023/07/09 04:38:10;;;;;;;13.48;8.70;;;;;;;;;;5076580;28;20180;-67
2023/07/09 04:40:35;;;;;;;10.52;8.40;;;;;;;;;;5082385;28;20203;-68
2023/07/09 04:43:01;;;;;;;12.20;8.70;;;;;;;;;;5084537;28;20679;-67
2023/07/09 04:45:26;;;;;;;14.25;8.68;;;;;;;;;;5082457;28;20197;-68
2023/07/09 04:47:52;;;;;;;12.05;8.57;;;;;;;;;;5078704;28;20563;-67
2023/07/09 04:50:18;;;;;;;11.18;8.65;;;;;;;;;;5082920;28;20208;-68
2023/07/09 04:52:44;;;;;;;11.25;8.80;;;;;;;;;;5084077;28;20271;-68
2023/07/09 04:55:09;;;;;;;14.18;9.02;;;;;;;;;;5080085;28;20195;-68
2023/07/09 04:57:35;;;;;;;12.15;8.77;;;;;;;;;;5081995;28;20180;-67
2023/07/09 05:00:01;;;;;;;12.70;9.07;;;;;;;;;;5085321;28;20598;-68
2023/07/09 05:02:27;;;;;;;10.13;8.02;;;;;;;;;;5082862;28;20208;-68
2023/07/09 05:04:52;;;;;;;14.02;8.73;;;;;;;;;;5079512;28;20213;-68
2023/07/09 05:07:18;;;;;;;11.32;8.00;;;;;;;;;;5071944;28;20282;-68
2023/07/09 05:09:43;;;;;;;10.63;8.30;;;;;;;;;;5080243;28;20306;-68
2023/07/09 05:12:09;;;;;;;10.50;8.27;;;;;;;;;;5078899;28;20196;-68
2023/07/09 05:14:35;;;;;;;12.38;9.15;;;;;;;;;;5079781;28;20227;-68
2023/07/09 05:17:00;;;;;;;9.77;8.05;;;;;;;;;;5082513;28;20192;-68
2023/07/09 05:19:26;;;;;;;11.20;8.70;;;;;;;;;;5080252;28;20180;-68
2023/07/09 05:21:51;;;;;;;13.85;8.85;;;;;;;;;;5082597;28;20659;-68
2023/07/09 05:24:16;;;;;;;12.38;8.25;;;;;;;;;;5070135;28;20573;-67
2023/07/09 05:26:42;;;;;;;11.13;8.80;;;;;;;;;;5075809;28;20319;-67
2023/07/09 05:29:07;;;;;;;14.85;9.20;;;;;;;;;;5073238;28;20644;-67
2023/07/09 05:31:33;;;;;;;12.02;8.65;;;;;;;;;;5076657;28;20571;-67
2023/07/09 05:33:59;;;;;;;12.82;8.90;;;;;;;;;;5066518;28;20196;-67
2023/07/09 05:36:27;;;;;;;13.32;9.13;;;;;;;;;;5079526;28;20184;-68
2023/07/09 05:38:52;;;;;;;12.43;9.05;;;;;;;;;;5075734;28;20652;-67
2023/07/09 05:41:17;;;;;;;13.73;8.45;;;;;;;;;;5081839;28;20310;-67
2023/07/09 05:43:44;;;;;;;12.27;9.27;;;;;;;;;;5071424;28;20273;-67
2023/07/09 05:46:10;;;;;;;13.05;8.80;;;;;;;;;;5079158;28;20253;-67
2023/07/09 05:48:36;;;;;;;13.95;8.60;;;;;;;;;;5074153;28;20185;-67
2023/07/09 05:51:01;;;;;;;12.30;8.35;;;;;;;;;;5078616;28;20214;-67
2023/07/09 05:53:26;;;;;;;15.05;8.73;;;;;;;;;;5074841;28;20200;-68
2023/07/09 05:55:55;;;;;;;13.13;7.90;;;;;;;;;;5070519;28;20651;-67
2023/07/09 05:58:22;;;;;;;13.43;7.82;;;;;;;;;;5070662;28;20573;-67
2023/07/09 06:00:53;;;;;;;11.93;8.55;;;;;;;;;;5071969;28;20207;-67
2023/07/09 06:03:22;;;;;;;9.10;7.70;;;;;;;;;;5084579;28;20188;-68
2023/07/09 06:05:52;;;;;;;13.70;8.15;;;;;;;;;;5089908;28;20221;-68
2023/07/09 06:08:18;;;;;;;12.80;8.27;;;;;;;;;;5076314;28;20195;-68
2023/07/09 06:10:55;;;;;;;16.95;8.52;;;;;;;;;;5077244;28;20181;-67
2023/07/09 06:13:23;;;;;;;14.45;8.45;;;;;;;;;;5077222;28;20195;-68
2023/07/09 06:15:50;;;;;;;12.38;7.78;;;;;;;;;;5083132;28;20193;-67
2023/07/09 06:18:15;;;;;;;15.35;9.13;;;;;;;;;;5083924;28;20676;-68
2023/07/09 06:20:40;;;;;;;13.13;7.88;;;;;;;;;;5090897;28;20180;-67
2023/07/09 06:23:07;;;;;;;12.50;7.90;;;;;;;;;;5073967;28;20196;-66
2023/07/09 06:25:32;;;;;;;13.48;8.75;;;;;;;;;;5078346;28;20736;-65
2023/07/09 06:27:57;;;;;;;12.82;8.23;;;;;;;;;;5090922;28;20227;-67
2023/07/09 06:30:23;;;;;;;13.05;7.75;;;;;;;;;;5085691;28;20648;-66
2023/07/09 06:32:49;;;;;;;16.65;8.38;;;;;;;;;;5088095;28;20203;-67
2023/07/09 06:35:14;;;;;;;13.35;9.35;;;;;;;;;;5087144;28;20194;-67
2023/07/09 06:37:40;;;;;;;11.32;7.97;;;;;;;;;;5082082;28;20189;-67
2023/07/09 06:40:08;;;;;;;15.18;9.55;;;;;;;;;;5090360;28;20200;-67
2023/07/09 06:42:36;;;;;;;11.50;8.25;;;;;;;;;;5083245;28;20224;-67
2023/07/09 06:45:04;;;;;;;14.02;8.88;;;;;;;;;;5072804;28;20275;-67
2023/07/09 06:47:29;;;;;;;10.68;8.43;;;;;;;;;;5075671;28;20741;-67
2023/07/09 06:49:55;;;;;;;16.05;8.80;;;;;;;;;;5071907;28;20193;-68
2023/07/09 06:52:20;;;;;;;11.93;8.73;;;;;;;;;;5078350;28;20195;-68
2023/07/09 06:54:45;;;;;;;16.60;9.00;;;;;;;;;;5073070;28;20194;-68
2023/07/09 06:57:11;;;;;;;15.77;8.85;;;;;;;;;;5079417;28;20681;-67
2023/07/09 06:59:37;;;;;;;11.82;9.32;;;;;;;;;;5076882;28;20189;-67
2023/07/09 07:02:03;;;;;;;12.18;8.25;;;;;;;;;;5087181;28;20287;-67
2023/07/09 07:04:29;;;;;;;10.90;8.75;;;;;;;;;;5083889;28;20736;-67
2023/07/09 07:06:56;;;;;;;15.63;9.30;;;;;;;;;;5076801;28;20294;-68
2023/07/09 07:09:23;;;;;;;14.63;8.55;;;;;;;;;;5073717;28;20203;-68
2023/07/09 07:11:49;;;;;;;15.10;9.18;;;;;;;;;;5073302;28;20196;-68
2023/07/09 07:14:14;;;;;;;18.23;9.43;;;;;;;;;;5072360;28;20244;-68
2023/07/09 07:16:40;;;;;;;13.35;9.38;;;;;;;;;;5073460;28;20675;-68
2023/07/09 07:19:05;;;;;;;12.90;8.90;;;;;;;;;;5073717;28;20325;-68
2023/07/09 07:21:31;;;;;;;12.93;8.77;;;;;;;;;;5073649;28;20731;-68
2023/07/09 07:23:56;;;;;;;13.52;9.20;;;;;;;;;;5074097;28;20482;-68
2023/07/09 07:26:22;;;;;;;12.73;9.05;;;;;;;;;;5073875;28;20235;-68
2023/07/09 07:28:47;;;;;;;15.05;8.63;;;;;;;;;;5077672;28;20184;-69
2023/07/09 07:31:13;;;;;;;13.95;9.32;;;;;;;;;;5079743;28;20222;-68
2023/07/09 07:33:40;;;;;;;12.30;8.95;;;;;;;;;;5087937;28;20195;-68
2023/07/09 07:36:06;;;;;;;13.43;8.55;;;;;;;;;;5086690;28;20176;-69
2023/07/09 07:38:31;;;;;;;13.63;8.80;;;;;;;;;;5086111;28;20794;-69
2023/07/09 07:40:57;;;;;;;12.98;9.60;;;;;;;;;;5078583;28;20666;-69
2023/07/09 07:43:22;;;;;;;12.77;8.95;;;;;;;;;;5074447;28;20229;-68
2023/07/09 07:45:48;;;;;;;14.07;9.32;;;;;;;;;;5076273;28;20215;-68
2023/07/09 07:48:13;;;;;;;15.20;9.48;;;;;;;;;;5079840;28;20211;-68
2023/07/09 07:50:40;;;;;;;14.52;9.93;;;;;;;;;;5073580;28;20184;-68
2023/07/09 07:53:07;;;;;;;11.73;9.60;;;;;;;;;;5080481;28;20188;-68
2023/07/09 07:55:33;;;;;;;14.80;9.45;;;;;;;;;;5076081;28;20650;-68
2023/07/09 07:57:59;;;;;;;12.82;9.48;;;;;;;;;;5074981;28;20203;-68
2023/07/09 08:00:25;;;;;;;15.63;10.02;;;;;;;;;;5070948;28;20226;-68
2023/07/09 08:02:51;;;;;;;12.32;9.32;;;;;;;;;;5077002;28;20216;-68
2023/07/09 08:05:16;;;;;;;13.20;8.52;;;;;;;;;;5072057;28;20551;-67
2023/07/09 08:07:42;;;;;;;13.57;9.35;;;;;;;;;;5079262;28;20216;-68
2023/07/09 08:10:08;;;;;;;13.40;9.23;;;;;;;;;;5071991;28;20271;-69
2023/07/09 08:12:33;;;;;;;12.73;9.15;;;;;;;;;;5080557;28;20184;-68
2023/07/09 08:14:58;;;;;;;16.40;9.38;;;;;;;;;;5071077;28;20193;-68
2023/07/09 08:17:24;;;;;;;13.15;8.88;;;;;;;;;;5081035;28;20279;-69
2023/07/09 08:19:52;;;;;;;13.05;9.02;;;;;;;;;;5081993;28;20295;-68
2023/07/09 08:22:20;;;;;;;17.20;8.68;;;;;;;;;;5084163;28;20202;-68
2023/07/09 08:24:46;;;;;;;17.70;8.75;;;;;;;;;;5070456;28;20216;-68
2023/07/09 08:27:11;;;;;;;15.68;9.60;;;;;;;;;;5074738;28;20307;-68
2023/07/09 08:29:37;;;;;;;13.13;8.93;;;;;;;;;;5080119;28;20243;-67
2023/07/09 08:32:03;;;;;;;15.35;9.05;;;;;;;;;;5074713;28;20612;-67
2023/07/09 08:34:29;;;;;;;13.57;9.43;;;;;;;;;;5078901;28;20550;-67
2023/07/09 08:36:54;;;;;;;13.95;8.90;;;;;;;;;;5071059;28;20190;-68
2023/07/09 08:39:20;;;;;;;13.30;8.88;;;;;;;;;;5075759;28;20275;-68
2023/07/09 08:41:52;;;;;;;10.63;8.45;;;;;;;;;;5075057;28;20215;-67
2023/07/09 08:44:46;;;;;;;12.70;8.18;;;;;;;;;;5080827;28;20670;-68
2023/07/09 08:47:26;;;;;;;11.95;8.10;;;;;;;;;;5076356;28;20675;-67
2023/07/09 08:50:02;;;;;;;12.82;8.40;;;;;;;;;;5080027;28;20195;-67
2023/07/09 08:52:35;;;;;;;12.48;8.60;;;;;;;;;;5069022;28;20644;-68
2023/07/09 08:55:07;;;;;;;13.45;8.98;;;;;;;;;;5071943;28;20305;-67
2023/07/09 08:57:39;;;;;;;10.77;8.82;;;;;;;;;;5069042;28;20181;-67
2023/07/09 09:00:13;;;;;;;11.13;7.68;;;;;;;;;;5069925;28;20220;-66
2023/07/09 09:02:50;;;;;;;13.10;8.55;;;;;;;;;;5071324;28;20317;-66
2023/07/09 09:05:19;;;;;;;12.98;8.65;;;;;;;;;;5069133;28;20257;-66
2023/07/09 09:07:46;;;;;;;12.95;8.30;;;;;;;;;;5075043;28;20239;-67
2023/07/09 09:10:17;;;;;;;10.18;8.48;;;;;;;;;;5070113;28;20192;-67
2023/07/09 09:12:59;;;;;;;12.32;8.82;;;;;;;;;;5074007;28;20188;-66
2023/07/09 09:15:25;;;;;;;13.10;8.38;;;;;;;;;;5081199;28;20199;-67
2023/07/09 09:17:56;;;;;;;18.15;9.38;;;;;;;;;;5069346;28;20704;-67
2023/07/09 09:20:22;;;;;;;14.07;8.73;;;;;;;;;;5071231;28;20841;-68
2023/07/09 09:23:00;;;;;;;15.13;8.48;;;;;;;;;;5074557;28;20579;-68
2023/07/09 09:25:31;;;;;;;12.30;8.60;;;;;;;;;;5077979;28;20201;-67
2023/07/09 09:28:01;;;;;;;9.57;8.57;;;;;;;;;;5079954;28;20195;-67
2023/07/09 09:30:28;;;;;;;10.48;7.88;;;;;;;;;;5080935;28;20267;-67
2023/07/09 09:32:57;;;;;;;10.27;7.60;;;;;;;;;;5085940;28;20187;-67
2023/07/09 09:35:38;;;;;;;12.02;7.80;;;;;;;;;;5073612;28;20185;-67
2023/07/09 09:38:11;;;;;;;8.52;7.43;;;;;;;;;;5079502;28;20248;-66
2023/07/09 09:40:36;;;;;;;10.48;7.60;;;;;;;;;;5073983;28;20973;-66
2023/07/09 09:43:09;;;;;;;16.00;8.07;;;;;;;;;;5072026;28;20236;-66
2023/07/09 09:45:38;;;;;;;11.27;7.70;;;;;;;;;;5079994;28;20188;-67
2023/07/09 09:48:15;;;;;;;14.98;8.93;;;;;;;;;;5079964;28;20219;-67
2023/07/09 09:50:41;;;;;;;15.80;9.07;;;;;;;;;;4372592;28;10000797;-67
2023/07/09 09:53:08;;;;;;;14.27;9.15;;;;;;;;;;5079593;28;20187;-67
2023/07/09 09:55:34;;;;;;;11.38;7.45;;;;;;;;;;5069841;28;20622;-67
2023/07/09 09:58:02;;;;;;;11.32;8.48;;;;;;;;;;5081599;28;20212;-67
2023/07/09 10:00:33;;;;;;;14.88;8.48;;;;;;;;;;5074767;28;20640;-67
2023/07/09 10:03:03;;;;;;;15.30;8.68;;;;;;;;;;5077202;28;20188;-67
2023/07/09 10:05:58;;;;;;;10.90;8.50;;;;;;;;;;5072696;28;20188;-68
2023/07/09 10:08:52;;;;;;;13.25;8.55;;;;;;;;;;5080782;28;20199;-67
2023/07/09 10:11:42;;;;;;;13.55;8.70;;;;;;;;;;5078203;28;20667;-67
2023/07/09 10:14:37;;;;;;;13.40;8.27;;;;;;;;;;5074072;28;20196;-67
2023/07/09 10:17:17;;;;;;;10.82;8.18;;;;;;;;;;5070645;28;20222;-67
2023/07/09 10:20:01;;;;;;;12.30;8.02;;;;;;;;;;5073506;28;20248;-67
2023/07/09 10:22:40;;;;;;;12.00;8.02;;;;;;;;;;5081933;28;20187;-67
2023/07/09 10:25:30;;;;;;;11.63;8.40;;;;;;;;;;5082085;28;20198;-68
2023/07/09 10:28:15;;;;;;;11.95;7.78;;;;;;;;;;5074008;28;20196;-68
2023/07/09 10:31:05;;;;;;;11.25;8.07;;;;;;;;;;5073686;28;20184;-68
2023/07/09 10:33:55;;;;;;;13.13;8.05;;;;;;;;;;5067499;28;20192;-68
2023/07/09 10:37:02;;;;;;;14.68;8.23;;;;;;;;;;5077140;28;20275;-67
2023/07/09 10:39:37;;;;;;;12.45;8.15;;;;;;;;;;5080305;28;20187;-68
2023/07/09 10:42:03;;;;;;;13.68;7.75;;;;;;;;;;5075571;28;20222;-68
2023/07/09 10:44:38;;;;;;;12.40;8.10;;;;;;;;;;5072437;28;20640;-68
2023/07/09 10:47:11;;;;;;;11.20;7.40;;;;;;;;;;5069322;28;20235;-68
2023/07/09 10:49:40;;;;;;;12.90;7.50;;;;;;;;;;5072867;28;20699;-67
2023/07/09 10:52:26;;;;;;;13.88;7.65;;;;;;;;;;5082459;28;20183;-67
2023/07/09 10:55:21;;;;;;;12.27;6.80;;;;;;;;;;5074281;28;20195;-68
2023/07/09 10:57:54;;;;;;;10.60;7.18;;;;;;;;;;5076510;28;20656;-68
2023/07/09 11:00:21;;;;;;;11.05;7.18;;;;;;;;;;5075862;28;20233;-68
2023/07/09 11:02:54;;;;;;;13.35;7.07;;;;;;;;;;5079713;28;20195;-68
2023/07/09 11:05:19;;;;;;;13.02;7.60;;;;;;;;;;5069114;28;20241;-68
2023/07/09 11:08:00;;;;;;;11.27;7.93;;;;;;;;;;5070137;28;20220;-69
2023/07/09 11:10:32;;;;;;;10.52;7.22;;;;;;;;;;5076380;28;20233;-68
2023/07/09 11:13:05;;;;;;;13.57;7.00;;;;;;;;;;5084115;28;20276;-68
2023/07/09 11:15:37;;;;;;;8.90;7.10;;;;;;;;;;5082643;28;20183;-66
2023/07/09 11:18:06;;;;;;;12.38;7.05;;;;;;;;;;5086766;28;20253;-68
2023/07/09 11:20:41;;;;;;;11.38;6.68;;;;;;;;;;5077078;28;20188;-68
2023/07/09 11:23:17;;;;;;;9.50;6.93;;;;;;;;;;5078144;28;20210;-66
2023/07/09 11:25:45;;;;;;;11.48;7.00;;;;;;;;;;5079460;28;20180;-67
2023/07/09 11:28:11;;;;;;;11.75;7.47;;;;;;;;;;5086127;28;20194;-67
2023/07/09 11:31:04;;;;;;;8.63;6.68;;;;;;;;;;5086939;28;20188;-68
2023/07/09 11:33:29;;;;;;;9.90;7.32;;;;;;;;;;5081033;28;20226;-68
2023/07/09 11:36:13;;;;;;;12.23;7.18;;;;;;;;;;5070958;28;20203;-66
2023/07/09 11:38:44;;;;;;;8.88;7.53;;;;;;;;;;5078855;28;20179;-67
2023/07/09 11:41:42;;;;;;;8.43;7.07;;;;;;;;;;5071661;28;20196;-67
2023/07/09 11:44:18;;;;;;;9.57;7.43;;;;;;;;;;5071455;28;20218;-69
2023/07/09 11:47:19;;;;;;;12.88;7.18;;;;;;;;;;5086897;28;20218;-69
2023/07/09 11:49:59;;;;;;;9.68;7.07;;;;;;;;;;5078840;28;20698;-70
2023/07/09 11:53:18;;;;;;;9.85;7.05;;;;;;;;;;5086589;28;21016;-67
2023/07/09 11:55:45;;;;;;;10.43;6.43;;;;;;;;;;5063352;28;20223;-67
2023/07/09 11:58:14;;;;;;;13.23;7.00;;;;;;;;;;5080098;28;20705;-68
2023/07/09 12:00:45;;;;;;;10.25;6.63;;;;;;;;;;5081354;28;20233;-68
2023/07/09 12:03:17;;;;;;;9.73;6.20;;;;;;;;;;5070181;28;20592;-67
2023/07/09 12:05:49;;;;;;;8.40;6.25;;;;;;;;;;5078008;28;20192;-68
2023/07/09 12:08:16;;;;;;;9.40;6.00;;;;;;;;;;5067431;28;20410;-68
2023/07/09 12:10:42;;;;;;;8.85;5.32;;;;;;;;;;5080285;28;20211;-68
2023/07/09 12:13:10;;;;;;;9.15;6.00;;;;;;;;;;5080764;28;20216;-68
2023/07/09 12:15:38;;;;;;;8.77;6.53;;;;;;;;;;5074458;28;20535;-66
2023/07/09 12:18:10;;;;;;;10.52;6.82;;;;;;;;;;5080767;28;20191;-67
2023/07/09 12:20:37;;;;;;;12.23;6.63;;;;;;;;;;5070950;28;20222;-67
2023/07/09 12:23:29;;;;;;;13.00;5.97;;;;;;;;;;5067241;28;20231;-67
2023/07/09 12:25:58;;;;;;;11.98;5.95;;;;;;;;;;5071441;28;20761;-67
2023/07/09 12:28:26;;;;;;;7.43;5.50;;;;;;;;;;5069569;28;20187;-67
2023/07/09 12:30:52;;;;;;;8.05;5.57;;;;;;;;;;5083165;28;20192;-67
2023/07/09 12:33:19;;;;;;;7.85;6.03;;;;;;;;;;5065765;28;20198;-67
2023/07/09 12:35:47;;;;;;;12.60;5.80;;;;;;;;;;5078155;28;20298;-67
2023/07/09 12:38:23;;;;;;;7.18;5.35;;;;;;;;;;5076874;28;20213;-66
2023/07/09 12:40:50;;;;;;;7.18;5.40;;;;;;;;;;5077659;28;20209;-68
2023/07/09 12:43:30;;;;;;;7.75;5.78;;;;;;;;;;5067742;28;20239;-68
2023/07/09 12:45:57;;;;;;;7.72;5.82;;;;;;;;;;5074710;28;20542;-68
2023/07/09 12:48:25;;;;;;;8.55;6.43;;;;;;;;;;5085661;28;20225;-68
2023/07/09 12:50:51;;;;;;;10.18;5.93;;;;;;;;;;5074422;28;20188;-68
2023/07/09 12:53:23;;;;;;;7.00;6.22;;;;;;;;;;5077625;28;20206;-67
2023/07/09 12:55:50;;;;;;;8.23;6.07;;;;;;;;;;5076490;28;20264;-67
2023/07/09 12:58:38;;;;;;;7.47;5.55;;;;;;;;;;5080745;28;20187;-68
2023/07/09 13:01:13;;;;;;;11.63;6.43;;;;;;;;;;5078395;28;20318;-67
2023/07/09 13:03:39;;;;;;;8.80;6.50;;;;;;;;;;5073643;28;20244;-66
2023/07/09 13:06:44;;;;;;;9.43;6.53;;;;;;;;;;5075388;28;20686;-67
2023/07/09 13:09:23;;;;;;;10.65;6.05;;;;;;;;;;5073803;28;20221;-67
2023/07/09 13:11:49;;;;;;;9.38;5.93;;;;;;;;;;5078796;28;20186;-67
2023/07/09 13:14:23;;;;;;;10.23;5.93;;;;;;;;;;5083565;28;20674;-67
2023/07/09 13:16:49;;;;;;;7.47;5.95;;;;;;;;;;5084400;28;20487;-67
2023/07/09 13:19:15;;;;;;;11.82;6.03;;;;;;;;;;5079347;28;20188;-67
2023/07/09 13:21:42;;;;;;;9.88;6.47;;;;;;;;;;5081723;28;20722;-67
2023/07/09 13:24:18;;;;;;;9.70;6.72;;;;;;;;;;5075460;28;20226;-67
2023/07/09 13:26:43;;;;;;;11.05;7.00;;;;;;;;;;5073045;28;20226;-67
2023/07/09 13:29:17;;;;;;;11.85;6.53;;;;;;;;;;5083379;28;20408;-66
2023/07/09 13:31:44;;;;;;;10.90;6.68;;;;;;;;;;5072092;28;20188;-69
2023/07/09 13:34:27;;;;;;;9.18;6.60;;;;;;;;;;5085328;28;20511;-68
2023/07/09 13:36:56;;;;;;;8.40;6.40;;;;;;;;;;5075596;28;20202;-69
2023/07/09 13:39:22;;;;;;;10.10;6.40;;;;;;;;;;5085263;28;20190;-68
2023/07/09 13:41:50;;;;;;;10.43;6.85;;;;;;;;;;5068255;28;20180;-68
2023/07/09 13:44:25;;;;;;;11.07;6.13;;;;;;;;;;5084428;28;20191;-69
2023/07/09 13:46:54;;;;;;;11.95;6.78;;;;;;;;;;5083494;28;20211;-68
2023/07/09 13:49:23;;;;;;;8.00;6.00;;;;;;;;;;5070949;28;20192;-68
2023/07/09 13:51:51;;;;;;;9.68;6.05;;;;;;;;;;5084974;28;20252;-68
2023/07/09 13:54:24;;;;;;;8.68;6.32;;;;;;;;;;5073241;28;20719;-68
2023/07/09 13:56:50;;;;;;;10.88;6.72;;;;;;;;;;5074127;28;20206;-68
2023/07/09 13:59:18;;;;;;;10.82;6.40;;;;;;;;;;5073561;28;20211;-68
2023/07/09 14:01:44;;;;;;;10.82;6.18;;;;;;;;;;5070812;28;21046;-68
2023/07/09 14:04:14;;;;;;;9.95;6.07;;;;;;;;;;5077518;28;20195;-68
2023/07/09 14:06:40;;;;;;;9.68;6.32;;;;;;;;;;5073059;28;20345;-69
2023/07/09 14:09:06;;;;;;;11.10;6.28;;;;;;;;;;5074002;28;20283;-67
2023/07/09 14:11:32;;;;;;;11.98;6.25;;;;;;;;;;5072752;28;20183;-68
2023/07/09 14:13:58;;;;;;;9.70;6.28;;;;;;;;;;5078734;28;20192;-68
2023/07/09 14:16:23;;;;;;;9.65;6.13;;;;;;;;;;5083906;28;20714;-68
2023/07/09 14:18:49;;;;;;;10.60;6.90;;;;;;;;;;5073591;28;20194;-69
2023/07/09 14:21:20;;;;;;;8.27;6.40;;;;;;;;;;5072572;28;20284;-68
2023/07/09 14:23:46;;;;;;;10.10;6.32;;;;;;;;;;5079697;28;20233;-67
2023/07/09 14:26:11;;;;;;;10.32;6.40;;;;;;;;;;5073668;28;20242;-68
2023/07/09 14:28:38;;;;;;;9.70;6.20;;;;;;;;;;5084115;28;20187;-68
2023/07/09 14:31:13;;;;;;;8.32;6.53;;;;;;;;;;5077304;28;20278;-68
2023/07/09 14:33:38;;;;;;;9.65;6.50;;;;;;;;;;5071660;28;20183;-69
2023/07/09 14:36:04;;;;;;;10.05;6.88;;;;;;;;;;5086170;28;20588;-67
2023/07/09 14:38:29;;;;;;;14.13;6.50;;;;;;;;;;5072213;28;20203;-68
2023/07/09 14:40:59;;;;;;;10.82;6.28;;;;;;;;;;5085810;28;20306;-68
2023/07/09 14:43:28;;;;;;;7.47;5.95;;;;;;;;;;5069379;28;20247;-68
2023/07/09 14:45:53;;;;;;;14.55;6.45;;;;;;;;;;5089809;28;20183;-68
2023/07/09 14:48:20;;;;;;;12.23;6.47;;;;;;;;;;5084622;28;20192;-68